sensor_id;sensor_type;location;lat;lon;timestamp;pressure;altitude;pressure_sealevel;temperature
22828;BMP180;11580;52.562;13.418;2022-12-07T00:01:05;100285.00;;;8.30
22828;BMP180;11580;52.562;13.418;2022-12-07T00:03:33;100282.00;;;8.30
22828;BMP180;11580;52.562;13.418;2022-12-07T00:06:02;100277.00;;;8.30
22828;BMP180;11580;52.562;13.418;2022-12-07T00:08:30;100275.00;;;8.30
22828;BMP180;11580;52.562;13.418;2022-12-07T00:11:02;100278.00;;;8.30
22828;BMP180;11580;52.562;13.418;2022-12-07T00:13:30;100280.00;;;8.20
22828;BMP180;11580;52.562;13.418;2022-12-07T00:16:01;100271.00;;;8.20
22828;BMP180;11580;52.562;13.418;2022-12-07T00:18:29;100262.00;;;8.10
22828;BMP180;11580;52.562;13.418;2022-12-07T00:21:01;100248.00;;;8.10
22828;BMP180;11580;52.562;13.418;2022-12-07T00:23:29;100261.00;;;8.10
22828;BMP180;11580;52.562;13.418;2022-12-07T00:26:02;100237.00;;;8.10
22828;BMP180;11580;52.562;13.418;2022-12-07T00:28:29;100256.00;;;8.10
22828;BMP180;11580;52.562;13.418;2022-12-07T00:31:01;100261.00;;;8.00
22828;BMP180;11580;52.562;13.418;2022-12-07T00:33:28;100254.00;;;8.00
22828;BMP180;11580;52.562;13.418;2022-12-07T00:35:56;100249.00;;;8.00
22828;BMP180;11580;52.562;13.418;2022-12-07T00:38:28;100255.00;;;8.00
22828;BMP180;11580;52.562;13.418;2022-12-07T00:40:57;100244.00;;;8.10
22828;BMP180;11580;52.562;13.418;2022-12-07T00:43:24;100245.00;;;8.10
22828;BMP180;11580;52.562;13.418;2022-12-07T00:45:52;100244.00;;;8.10
22828;BMP180;11580;52.562;13.418;2022-12-07T00:48:19;100236.00;;;8.10
22828;BMP180;11580;52.562;13.418;2022-12-07T00:50:47;100238.00;;;8.20
22828;BMP180;11580;52.562;13.418;2022-12-07T00:53:14;100239.00;;;8.20
22828;BMP180;11580;52.562;13.418;2022-12-07T00:55:44;100240.00;;;8.20
22828;BMP180;11580;52.562;13.418;2022-12-07T00:58:11;100237.00;;;8.20
22828;BMP180;11580;52.562;13.418;2022-12-07T01:00:41;100235.00;;;8.20
22828;BMP180;11580;52.562;13.418;2022-12-07T01:03:12;100238.00;;;8.20
22828;BMP180;11580;52.562;13.418;2022-12-07T01:05:40;100222.00;;;8.20
22828;BMP180;11580;52.562;13.418;2022-12-07T01:08:15;100229.00;;;8.10
22828;BMP180;11580;52.562;13.418;2022-12-07T01:10:43;100228.00;;;8.10
22828;BMP180;11580;52.562;13.418;2022-12-07T01:13:11;100223.00;;;8.00
22828;BMP180;11580;52.562;13.418;2022-12-07T01:15:39;100216.00;;;7.90
22828;BMP180;11580;52.562;13.418;2022-12-07T01:18:06;100212.00;;;7.90
22828;BMP180;11580;52.562;13.418;2022-12-07T01:20:35;100214.00;;;7.80
22828;BMP180;11580;52.562;13.418;2022-12-07T01:23:02;100205.00;;;7.80
22828;BMP180;11580;52.562;13.418;2022-12-07T01:25:29;100219.00;;;7.80
22828;BMP180;11580;52.562;13.418;2022-12-07T01:27:58;100207.00;;;7.80
22828;BMP180;11580;52.562;13.418;2022-12-07T01:30:25;100211.00;;;7.80
22828;BMP180;11580;52.562;13.418;2022-12-07T01:32:52;100209.00;;;7.80
22828;BMP180;11580;52.562;13.418;2022-12-07T01:35:19;100208.00;;;7.80
22828;BMP180;11580;52.562;13.418;2022-12-07T01:37:47;100202.00;;;7.80
22828;BMP180;11580;52.562;13.418;2022-12-07T01:40:14;100207.00;;;7.90
22828;BMP180;11580;52.562;13.418;2022-12-07T01:42:41;100204.00;;;7.90
22828;BMP180;11580;52.562;13.418;2022-12-07T01:45:46;100200.00;;;7.90
22828;BMP180;11580;52.562;13.418;2022-12-07T01:48:18;100195.00;;;7.80
22828;BMP180;11580;52.562;13.418;2022-12-07T01:50:50;100202.00;;;7.80
22828;BMP180;11580;52.562;13.418;2022-12-07T01:53:19;100194.00;;;7.90
22828;BMP180;11580;52.562;13.418;2022-12-07T01:55:50;100189.00;;;7.90
22828;BMP180;11580;52.562;13.418;2022-12-07T01:58:19;100188.00;;;7.90
22828;BMP180;11580;52.562;13.418;2022-12-07T02:00:49;100184.00;;;8.00
22828;BMP180;11580;52.562;13.418;2022-12-07T02:03:22;100176.00;;;8.00
22828;BMP180;11580;52.562;13.418;2022-12-07T02:05:52;100173.00;;;8.00
22828;BMP180;11580;52.562;13.418;2022-12-07T02:08:20;100175.00;;;8.00
22828;BMP180;11580;52.562;13.418;2022-12-07T02:10:48;100176.00;;;8.00
22828;BMP180;11580;52.562;13.418;2022-12-07T02:13:21;100173.00;;;8.00
22828;BMP180;11580;52.562;13.418;2022-12-07T02:16:08;100174.00;;;8.00
22828;BMP180;11580;52.562;13.418;2022-12-07T02:18:55;100173.00;;;8.00
22828;BMP180;11580;52.562;13.418;2022-12-07T02:21:38;100170.00;;;8.00
22828;BMP180;11580;52.562;13.418;2022-12-07T02:24:23;100179.00;;;8.00
22828;BMP180;11580;52.562;13.418;2022-12-07T02:27:24;100166.00;;;7.90
22828;BMP180;11580;52.562;13.418;2022-12-07T02:30:00;100162.00;;;7.90
22828;BMP180;11580;52.562;13.418;2022-12-07T02:32:40;100165.00;;;7.90
22828;BMP180;11580;52.562;13.418;2022-12-07T02:35:17;100166.00;;;7.90
22828;BMP180;11580;52.562;13.418;2022-12-07T02:37:58;100144.00;;;7.90
22828;BMP180;11580;52.562;13.418;2022-12-07T02:40:35;100144.00;;;7.80
22828;BMP180;11580;52.562;13.418;2022-12-07T02:43:14;100141.00;;;7.80
22828;BMP180;11580;52.562;13.418;2022-12-07T02:45:46;100137.00;;;7.80
22828;BMP180;11580;52.562;13.418;2022-12-07T02:48:17;100138.00;;;7.80
22828;BMP180;11580;52.562;13.418;2022-12-07T02:50:48;100128.00;;;7.70
22828;BMP180;11580;52.562;13.418;2022-12-07T02:53:33;100128.00;;;7.70
22828;BMP180;11580;52.562;13.418;2022-12-07T02:56:08;100124.00;;;7.70
22828;BMP180;11580;52.562;13.418;2022-12-07T02:58:56;100128.00;;;7.70
22828;BMP180;11580;52.562;13.418;2022-12-07T03:01:39;100121.00;;;7.70
22828;BMP180;11580;52.562;13.418;2022-12-07T03:04:27;100119.00;;;7.80
22828;BMP180;11580;52.562;13.418;2022-12-07T03:07:06;100109.00;;;7.80
22828;BMP180;11580;52.562;13.418;2022-12-07T03:09:43;100106.00;;;7.80
22828;BMP180;11580;52.562;13.418;2022-12-07T03:12:18;100105.00;;;7.80
22828;BMP180;11580;52.562;13.418;2022-12-07T03:14:55;100092.00;;;7.80
22828;BMP180;11580;52.562;13.418;2022-12-07T03:17:30;100093.00;;;7.80
22828;BMP180;11580;52.562;13.418;2022-12-07T03:20:03;100058.00;;;7.80
22828;BMP180;11580;52.562;13.418;2022-12-07T03:22:34;100086.00;;;7.80
22828;BMP180;11580;52.562;13.418;2022-12-07T03:25:06;100089.00;;;7.80
22828;BMP180;11580;52.562;13.418;2022-12-07T03:27:42;100082.00;;;7.80
22828;BMP180;11580;52.562;13.418;2022-12-07T03:30:18;100082.00;;;7.90
22828;BMP180;11580;52.562;13.418;2022-12-07T03:32:52;100076.00;;;7.90
22828;BMP180;11580;52.562;13.418;2022-12-07T03:35:26;100062.00;;;7.90
22828;BMP180;11580;52.562;13.418;2022-12-07T03:38:00;100057.00;;;8.00
22828;BMP180;11580;52.562;13.418;2022-12-07T03:40:35;100065.00;;;8.00
22828;BMP180;11580;52.562;13.418;2022-12-07T03:43:05;100049.00;;;8.10
22828;BMP180;11580;52.562;13.418;2022-12-07T03:45:39;100044.00;;;8.10
22828;BMP180;11580;52.562;13.418;2022-12-07T03:48:20;100048.00;;;8.20
22828;BMP180;11580;52.562;13.418;2022-12-07T03:50:54;100035.00;;;8.20
22828;BMP180;11580;52.562;13.418;2022-12-07T03:53:33;100030.00;;;8.30
22828;BMP180;11580;52.562;13.418;2022-12-07T03:56:03;100025.00;;;8.30
22828;BMP180;11580;52.562;13.418;2022-12-07T03:58:33;99990.00;;;8.40
22828;BMP180;11580;52.562;13.418;2022-12-07T04:01:01;100027.00;;;8.50
22828;BMP180;11580;52.562;13.418;2022-12-07T04:03:29;100018.00;;;8.50
22828;BMP180;11580;52.562;13.418;2022-12-07T04:05:57;100019.00;;;8.50
22828;BMP180;11580;52.562;13.418;2022-12-07T04:08:25;100029.00;;;8.50
22828;BMP180;11580;52.562;13.418;2022-12-07T04:10:52;100017.00;;;8.50
22828;BMP180;11580;52.562;13.418;2022-12-07T04:13:19;100015.00;;;8.60
22828;BMP180;11580;52.562;13.418;2022-12-07T04:15:46;100009.00;;;8.60
22828;BMP180;11580;52.562;13.418;2022-12-07T04:18:13;100005.00;;;8.60
22828;BMP180;11580;52.562;13.418;2022-12-07T04:20:42;100014.00;;;8.60
22828;BMP180;11580;52.562;13.418;2022-12-07T04:23:09;100005.00;;;8.60
22828;BMP180;11580;52.562;13.418;2022-12-07T04:25:36;100007.00;;;8.60
22828;BMP180;11580;52.562;13.418;2022-12-07T04:28:04;100008.00;;;8.60
22828;BMP180;11580;52.562;13.418;2022-12-07T04:30:31;99995.00;;;8.60
22828;BMP180;11580;52.562;13.418;2022-12-07T04:32:58;99995.00;;;8.60
22828;BMP180;11580;52.562;13.418;2022-12-07T04:35:25;99987.00;;;8.60
22828;BMP180;11580;52.562;13.418;2022-12-07T04:37:54;99985.00;;;8.60
22828;BMP180;11580;52.562;13.418;2022-12-07T04:40:21;99982.00;;;8.60
22828;BMP180;11580;52.562;13.418;2022-12-07T04:42:48;99984.00;;;8.60
22828;BMP180;11580;52.562;13.418;2022-12-07T04:45:15;99982.00;;;8.60
22828;BMP180;11580;52.562;13.418;2022-12-07T04:47:43;99977.00;;;8.60
22828;BMP180;11580;52.562;13.418;2022-12-07T04:50:10;99982.00;;;8.60
22828;BMP180;11580;52.562;13.418;2022-12-07T04:52:38;99977.00;;;8.60
22828;BMP180;11580;52.562;13.418;2022-12-07T04:55:07;99982.00;;;8.60
22828;BMP180;11580;52.562;13.418;2022-12-07T04:57:34;99976.00;;;8.60
22828;BMP180;11580;52.562;13.418;2022-12-07T05:00:02;99981.00;;;8.60
22828;BMP180;11580;52.562;13.418;2022-12-07T05:02:29;99971.00;;;8.60
22828;BMP180;11580;52.562;13.418;2022-12-07T05:04:56;99968.00;;;8.60
22828;BMP180;11580;52.562;13.418;2022-12-07T05:07:23;99976.00;;;8.60
22828;BMP180;11580;52.562;13.418;2022-12-07T05:09:52;99971.00;;;8.60
22828;BMP180;11580;52.562;13.418;2022-12-07T05:12:20;99972.00;;;8.60
22828;BMP180;11580;52.562;13.418;2022-12-07T05:14:47;99964.00;;;8.70
22828;BMP180;11580;52.562;13.418;2022-12-07T05:17:15;99964.00;;;8.70
22828;BMP180;11580;52.562;13.418;2022-12-07T05:19:42;99959.00;;;8.70
22828;BMP180;11580;52.562;13.418;2022-12-07T05:22:09;99960.00;;;8.70
22828;BMP180;11580;52.562;13.418;2022-12-07T05:24:36;99949.00;;;8.70
22828;BMP180;11580;52.562;13.418;2022-12-07T05:27:03;99955.00;;;8.70
22828;BMP180;11580;52.562;13.418;2022-12-07T05:29:32;99955.00;;;8.70
22828;BMP180;11580;52.562;13.418;2022-12-07T05:31:59;99958.00;;;8.70
22828;BMP180;11580;52.562;13.418;2022-12-07T05:34:26;99950.00;;;8.70
22828;BMP180;11580;52.562;13.418;2022-12-07T05:36:54;99948.00;;;8.70
22828;BMP180;11580;52.562;13.418;2022-12-07T05:39:21;99954.00;;;8.70
22828;BMP180;11580;52.562;13.418;2022-12-07T05:41:48;99949.00;;;8.70
22828;BMP180;11580;52.562;13.418;2022-12-07T05:44:34;99944.00;;;8.80
22828;BMP180;11580;52.562;13.418;2022-12-07T05:47:01;99938.00;;;8.80
22828;BMP180;11580;52.562;13.418;2022-12-07T05:49:28;99933.00;;;8.80
22828;BMP180;11580;52.562;13.418;2022-12-07T05:51:55;99936.00;;;8.80
22828;BMP180;11580;52.562;13.418;2022-12-07T05:54:23;99932.00;;;8.90
22828;BMP180;11580;52.562;13.418;2022-12-07T05:56:50;99930.00;;;8.90
22828;BMP180;11580;52.562;13.418;2022-12-07T05:59:17;99932.00;;;8.90
22828;BMP180;11580;52.562;13.418;2022-12-07T06:01:52;99924.00;;;8.90
22828;BMP180;11580;52.562;13.418;2022-12-07T06:04:21;99920.00;;;8.90
22828;BMP180;11580;52.562;13.418;2022-12-07T06:06:48;99922.00;;;8.90
22828;BMP180;11580;52.562;13.418;2022-12-07T06:09:16;99904.00;;;9.00
22828;BMP180;11580;52.562;13.418;2022-12-07T06:11:44;99896.00;;;9.00
22828;BMP180;11580;52.562;13.418;2022-12-07T06:14:29;99906.00;;;9.00
22828;BMP180;11580;52.562;13.418;2022-12-07T06:16:58;99906.00;;;9.00
22828;BMP180;11580;52.562;13.418;2022-12-07T06:19:25;99897.00;;;9.10
22828;BMP180;11580;52.562;13.418;2022-12-07T06:21:54;99906.00;;;9.10
22828;BMP180;11580;52.562;13.418;2022-12-07T06:24:22;99899.00;;;9.10
22828;BMP180;11580;52.562;13.418;2022-12-07T06:26:49;99868.00;;;9.10
22828;BMP180;11580;52.562;13.418;2022-12-07T06:29:18;99899.00;;;9.10
22828;BMP180;11580;52.562;13.418;2022-12-07T06:31:45;99896.00;;;9.10
22828;BMP180;11580;52.562;13.418;2022-12-07T06:34:17;99902.00;;;9.10
22828;BMP180;11580;52.562;13.418;2022-12-07T06:36:45;99902.00;;;9.10
22828;BMP180;11580;52.562;13.418;2022-12-07T06:39:18;99900.00;;;9.10
22828;BMP180;11580;52.562;13.418;2022-12-07T06:41:45;99894.00;;;9.10
22828;BMP180;11580;52.562;13.418;2022-12-07T06:44:13;99895.00;;;9.10
22828;BMP180;11580;52.562;13.418;2022-12-07T06:46:40;99893.00;;;9.10
22828;BMP180;11580;52.562;13.418;2022-12-07T06:49:08;99896.00;;;9.10
22828;BMP180;11580;52.562;13.418;2022-12-07T06:51:36;99895.00;;;9.10
22828;BMP180;11580;52.562;13.418;2022-12-07T06:54:07;99895.00;;;9.00
22828;BMP180;11580;52.562;13.418;2022-12-07T06:56:35;99896.00;;;9.00
22828;BMP180;11580;52.562;13.418;2022-12-07T06:59:02;99896.00;;;9.00
22828;BMP180;11580;52.562;13.418;2022-12-07T07:01:31;99891.00;;;9.00
22828;BMP180;11580;52.562;13.418;2022-12-07T07:03:59;99886.00;;;9.00
22828;BMP180;11580;52.562;13.418;2022-12-07T07:06:26;99891.00;;;9.00
22828;BMP180;11580;52.562;13.418;2022-12-07T07:08:55;99892.00;;;9.00
22828;BMP180;11580;52.562;13.418;2022-12-07T07:11:22;99891.00;;;9.00
22828;BMP180;11580;52.562;13.418;2022-12-07T07:13:49;99893.00;;;9.00
22828;BMP180;11580;52.562;13.418;2022-12-07T07:16:16;99887.00;;;9.00
22828;BMP180;11580;52.562;13.418;2022-12-07T07:18:44;99866.00;;;9.00
22828;BMP180;11580;52.562;13.418;2022-12-07T07:21:11;99895.00;;;9.00
22828;BMP180;11580;52.562;13.418;2022-12-07T07:23:38;99899.00;;;9.00
22828;BMP180;11580;52.562;13.418;2022-12-07T07:26:06;99894.00;;;9.10
22828;BMP180;11580;52.562;13.418;2022-12-07T07:28:33;99907.00;;;9.10
22828;BMP180;11580;52.562;13.418;2022-12-07T07:31:01;99891.00;;;9.10
22828;BMP180;11580;52.562;13.418;2022-12-07T07:33:28;99896.00;;;9.10
22828;BMP180;11580;52.562;13.418;2022-12-07T07:35:55;99891.00;;;9.00
22828;BMP180;11580;52.562;13.418;2022-12-07T07:38:22;99876.00;;;9.00
22828;BMP180;11580;52.562;13.418;2022-12-07T07:40:49;99891.00;;;9.00
22828;BMP180;11580;52.562;13.418;2022-12-07T07:43:18;99894.00;;;8.90
22828;BMP180;11580;52.562;13.418;2022-12-07T07:45:45;99895.00;;;8.90
22828;BMP180;11580;52.562;13.418;2022-12-07T07:48:12;99897.00;;;8.90
22828;BMP180;11580;52.562;13.418;2022-12-07T07:50:39;99896.00;;;8.90
22828;BMP180;11580;52.562;13.418;2022-12-07T07:53:06;99895.00;;;9.00
22828;BMP180;11580;52.562;13.418;2022-12-07T07:55:34;99898.00;;;9.00
22828;BMP180;11580;52.562;13.418;2022-12-07T07:58:01;99892.00;;;9.00
22828;BMP180;11580;52.562;13.418;2022-12-07T08:00:29;99902.00;;;9.00
22828;BMP180;11580;52.562;13.418;2022-12-07T08:02:56;99913.00;;;9.00
22828;BMP180;11580;52.562;13.418;2022-12-07T08:05:25;99909.00;;;9.00
22828;BMP180;11580;52.562;13.418;2022-12-07T08:07:52;99899.00;;;9.00
22828;BMP180;11580;52.562;13.418;2022-12-07T08:10:19;99899.00;;;9.10
22828;BMP180;11580;52.562;13.418;2022-12-07T08:12:46;99905.00;;;9.10
22828;BMP180;11580;52.562;13.418;2022-12-07T08:15:32;99902.00;;;9.10
22828;BMP180;11580;52.562;13.418;2022-12-07T08:18:00;99907.00;;;9.10
22828;BMP180;11580;52.562;13.418;2022-12-07T08:20:29;99908.00;;;9.10
22828;BMP180;11580;52.562;13.418;2022-12-07T08:22:57;99901.00;;;9.10
22828;BMP180;11580;52.562;13.418;2022-12-07T08:25:25;99923.00;;;9.10
22828;BMP180;11580;52.562;13.418;2022-12-07T08:27:52;99911.00;;;9.10
22828;BMP180;11580;52.562;13.418;2022-12-07T08:30:21;99916.00;;;9.10
22828;BMP180;11580;52.562;13.418;2022-12-07T08:32:50;99909.00;;;9.10
22828;BMP180;11580;52.562;13.418;2022-12-07T08:35:17;99918.00;;;9.10
22828;BMP180;11580;52.562;13.418;2022-12-07T08:37:44;99921.00;;;9.10
22828;BMP180;11580;52.562;13.418;2022-12-07T08:40:13;99921.00;;;9.10
22828;BMP180;11580;52.562;13.418;2022-12-07T08:42:41;99922.00;;;9.10
22828;BMP180;11580;52.562;13.418;2022-12-07T08:45:13;99932.00;;;9.10
22828;BMP180;11580;52.562;13.418;2022-12-07T08:47:46;99925.00;;;9.10
22828;BMP180;11580;52.562;13.418;2022-12-07T08:50:17;99932.00;;;9.10
22828;BMP180;11580;52.562;13.418;2022-12-07T08:52:48;99933.00;;;9.10
22828;BMP180;11580;52.562;13.418;2022-12-07T08:55:17;99931.00;;;9.10
22828;BMP180;11580;52.562;13.418;2022-12-07T08:57:44;99927.00;;;9.10
22828;BMP180;11580;52.562;13.418;2022-12-07T09:00:13;99931.00;;;9.10
22828;BMP180;11580;52.562;13.418;2022-12-07T09:02:40;99930.00;;;9.10
22828;BMP180;11580;52.562;13.418;2022-12-07T09:05:08;99940.00;;;9.10
22828;BMP180;11580;52.562;13.418;2022-12-07T09:07:38;99952.00;;;9.10
22828;BMP180;11580;52.562;13.418;2022-12-07T09:10:07;99948.00;;;9.10
22828;BMP180;11580;52.562;13.418;2022-12-07T09:12:34;99946.00;;;9.10
22828;BMP180;11580;52.562;13.418;2022-12-07T09:15:01;99947.00;;;9.10
22828;BMP180;11580;52.562;13.418;2022-12-07T09:17:32;99937.00;;;9.10
22828;BMP180;11580;52.562;13.418;2022-12-07T09:20:00;99944.00;;;9.10
22828;BMP180;11580;52.562;13.418;2022-12-07T09:22:29;99960.00;;;9.10
22828;BMP180;11580;52.562;13.418;2022-12-07T09:25:00;99949.00;;;9.10
22828;BMP180;11580;52.562;13.418;2022-12-07T09:27:28;99955.00;;;9.10
22828;BMP180;11580;52.562;13.418;2022-12-07T09:29:55;99961.00;;;9.20
22828;BMP180;11580;52.562;13.418;2022-12-07T09:32:22;99967.00;;;9.20
22828;BMP180;11580;52.562;13.418;2022-12-07T09:34:50;99971.00;;;9.10
22828;BMP180;11580;52.562;13.418;2022-12-07T09:37:17;99966.00;;;9.10
22828;BMP180;11580;52.562;13.418;2022-12-07T09:39:44;99957.00;;;9.00
22828;BMP180;11580;52.562;13.418;2022-12-07T09:42:26;99976.00;;;9.00
22828;BMP180;11580;52.562;13.418;2022-12-07T09:44:55;99967.00;;;9.00
22828;BMP180;11580;52.562;13.418;2022-12-07T09:47:22;99967.00;;;9.00
22828;BMP180;11580;52.562;13.418;2022-12-07T09:49:50;99948.00;;;9.00
22828;BMP180;11580;52.562;13.418;2022-12-07T09:52:21;99968.00;;;8.90
22828;BMP180;11580;52.562;13.418;2022-12-07T09:54:52;99971.00;;;8.90
22828;BMP180;11580;52.562;13.418;2022-12-07T09:57:28;99981.00;;;8.90
22828;BMP180;11580;52.562;13.418;2022-12-07T10:00:00;99974.00;;;8.90
22828;BMP180;11580;52.562;13.418;2022-12-07T10:02:36;99974.00;;;8.90
22828;BMP180;11580;52.562;13.418;2022-12-07T10:05:07;99971.00;;;8.80
22828;BMP180;11580;52.562;13.418;2022-12-07T10:07:36;99979.00;;;8.80
22828;BMP180;11580;52.562;13.418;2022-12-07T10:10:09;99978.00;;;8.80
22828;BMP180;11580;52.562;13.418;2022-12-07T10:12:58;99976.00;;;8.90
22828;BMP180;11580;52.562;13.418;2022-12-07T10:15:48;99975.00;;;8.90
22828;BMP180;11580;52.562;13.418;2022-12-07T10:18:27;99954.00;;;8.90
22828;BMP180;11580;52.562;13.418;2022-12-07T10:21:13;99975.00;;;8.90
22828;BMP180;11580;52.562;13.418;2022-12-07T10:23:59;99967.00;;;8.90
22828;BMP180;11580;52.562;13.418;2022-12-07T10:26:31;99978.00;;;8.90
22828;BMP180;11580;52.562;13.418;2022-12-07T10:29:14;99971.00;;;8.90
22828;BMP180;11580;52.562;13.418;2022-12-07T10:31:45;99970.00;;;8.90
22828;BMP180;11580;52.562;13.418;2022-12-07T10:34:22;99977.00;;;9.00
22828;BMP180;11580;52.562;13.418;2022-12-07T10:36:52;99953.00;;;9.00
22828;BMP180;11580;52.562;13.418;2022-12-07T10:39:22;99985.00;;;9.00
22828;BMP180;11580;52.562;13.418;2022-12-07T10:41:57;99980.00;;;9.00
22828;BMP180;11580;52.562;13.418;2022-12-07T10:44:28;99978.00;;;9.00
22828;BMP180;11580;52.562;13.418;2022-12-07T10:47:22;99970.00;;;8.90
22828;BMP180;11580;52.562;13.418;2022-12-07T10:50:27;99971.00;;;8.90
22828;BMP180;11580;52.562;13.418;2022-12-07T10:53:17;99961.00;;;8.90
22828;BMP180;11580;52.562;13.418;2022-12-07T10:56:03;99968.00;;;8.90
22828;BMP180;11580;52.562;13.418;2022-12-07T10:58:52;99969.00;;;8.80
22828;BMP180;11580;52.562;13.418;2022-12-07T11:01:28;99961.00;;;8.80
22828;BMP180;11580;52.562;13.418;2022-12-07T11:04:21;99967.00;;;8.80
22828;BMP180;11580;52.562;13.418;2022-12-07T11:07:00;99970.00;;;8.80
22828;BMP180;11580;52.562;13.418;2022-12-07T11:09:54;99971.00;;;8.90
22828;BMP180;11580;52.562;13.418;2022-12-07T11:12:38;99964.00;;;8.90
22828;BMP180;11580;52.562;13.418;2022-12-07T11:15:17;99965.00;;;9.00
22828;BMP180;11580;52.562;13.418;2022-12-07T11:17:55;99972.00;;;9.00
22828;BMP180;11580;52.562;13.418;2022-12-07T11:20:43;99965.00;;;9.10
22828;BMP180;11580;52.562;13.418;2022-12-07T11:23:32;99964.00;;;9.10
22828;BMP180;11580;52.562;13.418;2022-12-07T11:26:15;99964.00;;;9.10
22828;BMP180;11580;52.562;13.418;2022-12-07T11:29:09;99921.00;;;9.10
22828;BMP180;11580;52.562;13.418;2022-12-07T11:31:54;99953.00;;;9.10
22828;BMP180;11580;52.562;13.418;2022-12-07T11:34:37;99951.00;;;9.10
22828;BMP180;11580;52.562;13.418;2022-12-07T11:37:13;99951.00;;;9.20
22828;BMP180;11580;52.562;13.418;2022-12-07T11:39:49;99944.00;;;9.20
22828;BMP180;11580;52.562;13.418;2022-12-07T11:42:25;99948.00;;;9.30
22828;BMP180;11580;52.562;13.418;2022-12-07T11:44:57;99946.00;;;9.30
22828;BMP180;11580;52.562;13.418;2022-12-07T11:47:36;99940.00;;;9.30
22828;BMP180;11580;52.562;13.418;2022-12-07T11:50:25;99947.00;;;9.30
22828;BMP180;11580;52.562;13.418;2022-12-07T11:52:58;99925.00;;;9.30
22828;BMP180;11580;52.562;13.418;2022-12-07T11:55:38;99940.00;;;9.40
22828;BMP180;11580;52.562;13.418;2022-12-07T11:58:27;99945.00;;;9.40
22828;BMP180;11580;52.562;13.418;2022-12-07T12:01:13;99938.00;;;9.40
22828;BMP180;11580;52.562;13.418;2022-12-07T12:03:46;99942.00;;;9.40
22828;BMP180;11580;52.562;13.418;2022-12-07T12:06:15;99942.00;;;9.40
22828;BMP180;11580;52.562;13.418;2022-12-07T12:08:46;99946.00;;;9.50
22828;BMP180;11580;52.562;13.418;2022-12-07T12:11:33;99931.00;;;9.50
22828;BMP180;11580;52.562;13.418;2022-12-07T12:14:28;99934.00;;;9.50
22828;BMP180;11580;52.562;13.418;2022-12-07T12:20:04;99928.00;;;9.50
22828;BMP180;11580;52.562;13.418;2022-12-07T12:22:39;99920.00;;;9.50
22828;BMP180;11580;52.562;13.418;2022-12-07T12:25:19;99921.00;;;9.50
22828;BMP180;11580;52.562;13.418;2022-12-07T12:27:50;99928.00;;;9.60
22828;BMP180;11580;52.562;13.418;2022-12-07T12:30:34;99914.00;;;9.70
22828;BMP180;11580;52.562;13.418;2022-12-07T12:33:06;99922.00;;;9.70
22828;BMP180;11580;52.562;13.418;2022-12-07T12:35:39;99919.00;;;9.70
22828;BMP180;11580;52.562;13.418;2022-12-07T12:38:31;99926.00;;;9.80
22828;BMP180;11580;52.562;13.418;2022-12-07T12:41:01;99924.00;;;9.70
22828;BMP180;11580;52.562;13.418;2022-12-07T12:43:51;99923.00;;;9.80
22828;BMP180;11580;52.562;13.418;2022-12-07T12:46:49;99923.00;;;9.80
22828;BMP180;11580;52.562;13.418;2022-12-07T12:49:36;99920.00;;;9.80
22828;BMP180;11580;52.562;13.418;2022-12-07T12:56:16;99915.00;;;9.80
22828;BMP180;11580;52.562;13.418;2022-12-07T12:58:49;99920.00;;;9.80
22828;BMP180;11580;52.562;13.418;2022-12-07T13:01:40;99907.00;;;9.80
22828;BMP180;11580;52.562;13.418;2022-12-07T13:04:48;99911.00;;;9.80
22828;BMP180;11580;52.562;13.418;2022-12-07T13:07:51;99911.00;;;9.80
22828;BMP180;11580;52.562;13.418;2022-12-07T13:10:36;99925.00;;;9.80
22828;BMP180;11580;52.562;13.418;2022-12-07T13:13:35;99926.00;;;9.80
22828;BMP180;11580;52.562;13.418;2022-12-07T13:16:39;99916.00;;;9.70
22828;BMP180;11580;52.562;13.418;2022-12-07T13:22:53;99914.00;;;9.60
22828;BMP180;11580;52.562;13.418;2022-12-07T13:25:33;99912.00;;;9.60
22828;BMP180;11580;52.562;13.418;2022-12-07T13:28:15;99909.00;;;9.50
22828;BMP180;11580;52.562;13.418;2022-12-07T13:31:00;99915.00;;;9.50
22828;BMP180;11580;52.562;13.418;2022-12-07T13:33:30;99912.00;;;9.40
22828;BMP180;11580;52.562;13.418;2022-12-07T13:35:57;99913.00;;;9.40
22828;BMP180;11580;52.562;13.418;2022-12-07T13:38:30;99911.00;;;9.40
22828;BMP180;11580;52.562;13.418;2022-12-07T13:41:04;99899.00;;;9.40
22828;BMP180;11580;52.562;13.418;2022-12-07T13:43:44;99902.00;;;9.40
22828;BMP180;11580;52.562;13.418;2022-12-07T13:46:12;99909.00;;;9.40
22828;BMP180;11580;52.562;13.418;2022-12-07T13:48:45;99909.00;;;9.40
22828;BMP180;11580;52.562;13.418;2022-12-07T13:51:23;99914.00;;;9.40
22828;BMP180;11580;52.562;13.418;2022-12-07T13:53:55;99909.00;;;9.40
22828;BMP180;11580;52.562;13.418;2022-12-07T13:56:27;99912.00;;;9.40
22828;BMP180;11580;52.562;13.418;2022-12-07T13:59:00;99905.00;;;9.40
22828;BMP180;11580;52.562;13.418;2022-12-07T14:01:30;99916.00;;;9.40
22828;BMP180;11580;52.562;13.418;2022-12-07T14:04:31;99920.00;;;9.40
22828;BMP180;11580;52.562;13.418;2022-12-07T14:07:01;99927.00;;;9.40
22828;BMP180;11580;52.562;13.418;2022-12-07T14:09:29;99907.00;;;9.40
22828;BMP180;11580;52.562;13.418;2022-12-07T14:11:57;99920.00;;;9.40
22828;BMP180;11580;52.562;13.418;2022-12-07T14:14:30;99919.00;;;9.40
22828;BMP180;11580;52.562;13.418;2022-12-07T14:17:01;99917.00;;;9.40
22828;BMP180;11580;52.562;13.418;2022-12-07T14:19:50;99912.00;;;9.30
22828;BMP180;11580;52.562;13.418;2022-12-07T14:22:31;99929.00;;;9.30
22828;BMP180;11580;52.562;13.418;2022-12-07T14:25:14;99911.00;;;9.30
22828;BMP180;11580;52.562;13.418;2022-12-07T14:27:54;99902.00;;;9.30
22828;BMP180;11580;52.562;13.418;2022-12-07T14:30:27;99908.00;;;9.30
22828;BMP180;11580;52.562;13.418;2022-12-07T14:32:59;99906.00;;;9.30
22828;BMP180;11580;52.562;13.418;2022-12-07T14:35:28;99896.00;;;9.40
22828;BMP180;11580;52.562;13.418;2022-12-07T14:37:56;99887.00;;;9.40
22828;BMP180;11580;52.562;13.418;2022-12-07T14:40:26;99882.00;;;9.40
22828;BMP180;11580;52.562;13.418;2022-12-07T14:42:57;99889.00;;;9.40
22828;BMP180;11580;52.562;13.418;2022-12-07T14:45:28;99886.00;;;9.40
22828;BMP180;11580;52.562;13.418;2022-12-07T14:47:56;99873.00;;;9.40